Copacabana, Argentina
Current Conditions -  °F | °C
As of 4:00 PM on Monday 22 Dec 2014 (Local Time) from SANT Reporting Station
Broken Clouds Broken Clouds  
Wind Chill: 68°   Ceiling: 4000
Heat Index: 68°   Visibility: 6mi
Dew Point: 54°   Wind: 2mph
Humidity: 60%   Direction: 140°SE
Pressure: 30.12"   Gusts: NA
Location:  28.2°S, 67.48°W
Report Text: SANT 221900Z 14002KT 9999 FEW030 BKN04020/12 Q1020
Loading
Personal Weather Stations






























Interactive Weather Map New forecast layout! Learn more

10-Day Weather Forecast

Advertisements
Track Severe Weather on mobile